PILOTS ONLINE: 151    ATC ONLINE: 6

KTRM

Jacqueline Cochran Regional Airport

Location

City Palm Springs
Country  United States
Latitude 33° 37' 36" N
Longitude 116° 9' 36" W
Elevation -115 ft
Type Medium Airport

Map

Weather

METAR
2014/09/02 05:52
KTRM 020552Z AUTO 32007KT 10SM CLR 32/M01 A2965 RMK AO2 SLP044 T03221011 10411 20294 50013 TSNO
TAF
2014/09/02 06:21
TAF KTRM 020520Z 0206/0306 33008KT P6SM SKC 
     FM020800 VRB05KT P6SM SKC 
     FM021900 14008KT P6SM SKC 
     FM022300 VRB05KT P6SM SKC 
     FM030400 33008KT P6SM SKC

Runways

12/30 4995 ft / 100 ft
17/35 8500 ft / 150 ft

Outbound flights

Callsign Flying to Pilot ATD/STD ETA Aircraft

Inbound flights

Callsign Flying from Pilot ATD ETA Aircraft